Terminal Aerodrome Forecast
Issued by NWS

Home | Current Version | Previous Version | Text Only | Print | Product List | Glossary Off
Versions: 1 2 3 4 5 6 7 8 9 10 11 12 13 14 15 16 17 18 19 20 21 22 23

488
FTUS43 KLOT 250538
TAFDPA
TAF
KDPA 250538Z 2506/2606 02008KT P6SM FEW100 SCT250
     FM250700 02014G23KT P6SM SCT026 BKN100 BKN250
      TEMPO 2507/2509 BKN026 BKN100
     FM251300 03012G19KT P6SM FEW040 SCT250
     FM252200 04009KT P6SM SKC=

USA.gov is the U.S. government's official web portal to all federal, state and local government web resources and services.